Thunder radar more information blitzortung!


Rain radar more information rain snow radar


   Es ist keine erhoehte Aufmerksamkeit aufgrund des Wetters notwendig.   -   Es gibt keine Warnungen :-).

METAR-Meldungen aus der Umgebung

   
EBBR - Brussels International Airport, Belgium
Entfernung von der Station bis: W 14 km
Aktualisierung: 18-10-2019 02:50
Nearby Showers, Teilweise bewölkt  
Nearby Showers, Teilweise bewölkt  
   Wind: Süden 14.8 km/h
Wind: Süden 14.8 km/h
Temperatur: 13°C
Taupunkt: 11°C
Luftfeuchte: 88%
Luftdruck: 1007 hPa
Bewölkt: Teilweise bewölkt
Sichtbarkeit: More than 10 km
Bewölkung: leicht bewölkt 2000 ft,
Teilweise bewölkt 2800 ft
EBBR 180050Z 17008KT 9999 VCSH FEW020 SCT028 13/11 Q1007 NOSIG
EBBE - Beauvechain (Bevekom), Belgium
Entfernung von der Station bis: SSO 17 km
Aktualisierung: 18-10-2019 03:17
Leichter Niederschlag möglich, Stark bewölkt  
Leichter Niederschlag möglich, Stark bewölkt  
   Wind: Süden 14.8 km/h
Wind: Süden 14.8 km/h
Temperatur: 13°C
Taupunkt: 12°C
Luftfeuchte: 94%
Luftdruck: 1007 hPa
Bewölkt: Stark bewölkt
Sichtbarkeit: More than 10 km
Bewölkung: leicht bewölkt 1800 ft,
Teilweise bewölkt 2300 ft,
Stark bewölkt 2800 ft
EBBE 180117Z AUTO 18008KT 9999 -RA FEW018/// SCT023/// BKN028/// 13/12 Q1007 WHT
EBDT - Schaffen, Belgium
Entfernung von der Station bis: ONO 29 km
Aktualisierung: 18-10-2019 02:55
Leichter Niederschlag möglich, Bewölkt  
Leichter Niederschlag möglich, Bewölkt  
   Wind: Süden 14.8 km/h
Wind: Süden 14.8 km/h
Temperatur: 13°C
Taupunkt: 12°C
Luftfeuchte: 94%
Luftdruck: 1007 hPa
Bewölkt: Bewölkt
Sichtbarkeit: More than 10 km
Bewölkung: leicht bewölkt 1100 ft,
Stark bewölkt 6000 ft,
Bewölkt 9000 ft
EBDT 180055Z AUTO 17008KT 9999 -RA FEW011/// BKN060/// OVC090/// 13/12 Q1007 BLU
EBAW - Antwerp/Deurne, Belgium
Entfernung von der Station bis: NNW 38 km
Aktualisierung: 18-10-2019 02:50
Light Showers, Regen, Stark bewölkt  
Light Showers, Regen, Stark bewölkt  
   Wind: SSO 13 km/h
Wind: SSO 13 km/h
Temperatur: 13°C
Taupunkt: 12°C
Luftfeuchte: 94%
Luftdruck: 1006 hPa
Bewölkt: Stark bewölkt
Sichtbarkeit: More than 10 km
Bewölkung: Teilweise bewölkt 1600 ft,
Stark bewölkt 1900 ft,
Stark bewölkt 2300 ft
EBAW 180050Z AUTO 16007KT 9999 -SHRA SCT016/// BKN019/// BKN023/// 13/12 Q1006
EBCI - Charleroi/Gosselies, Belgium
Entfernung von der Station bis: SSW 51 km
Aktualisierung: 18-10-2019 02:50
Teilweise bewölkt  
Teilweise bewölkt  
   Wind: Süden 13 km/h
Wind: Süden 13 km/h
Temperatur: 13°C
Taupunkt: 11°C
Luftfeuchte: 88%
Luftdruck: 1007 hPa
Bewölkt: Teilweise bewölkt
Sichtbarkeit: More than 10 km
Bewölkung: leicht bewölkt 1000 ft,
Teilweise bewölkt 1500 ft
EBCI 180050Z 19007KT 150V220 9999 FEW010 SCT015 13/11 Q1007 RERA TEMPO 4000 SHRA BKN010
EBLG - Bierset/Liege, Belgium
Entfernung von der Station bis: OSO 60 km
Aktualisierung: 18-10-2019 02:50
Stark bewölkt  
Stark bewölkt  
   Wind: Süden 16.7 km/h
Wind: Süden 16.7 km/h
Temperatur: 13°C
Taupunkt: 11°C
Luftfeuchte: 88%
Luftdruck: 1008 hPa
Bewölkt: Stark bewölkt
Sichtbarkeit: More than 10 km
Bewölkung: Stark bewölkt 3700 ft
EBLG 180050Z 17009KT 9999 BKN037 13/11 Q1008 NOSIG

Script entwickelt von  Saratoga-weather.org Angepasst für das Template von  Weerstation Leuven